Archival Weather

Prince Abdulmajeed Bin Abdula

Prince Abdulmajeed Bin Abdula, Saudi Arabia (OEAO)

Report from: Monday, May 23, 2022 10:00 PM UTC
Current time: Tuesday, August 16, 2022 8:08 AM UTC

Current weather
Weather history
Weather forecast

Temperature29.0°C (84.2°F)
Heat index27.4°C (81.2°F)
Dew point-4.0°C (24.8°F)
Winds 8 kts (4.1 m/s, 9.2 mph) North (360°)
Clouds Sky clear
Altimeter29.85 in.Hg (1011 mB)
Relative humidity11 %
Density altitude1,761 ft. (537 m)
Remarks Ceiling and visibility OK
No significant changes expected in the next two hours
Flight conditions Visual Meteorological Conditions
Raw dataOEAO 232200Z 36008KT CAVOK 29/M04 Q1011 NOSIG
An error has occurred. This application may no longer respond until reloaded. Reload 🗙